Time;durP1;ratioP1;P1;durP2;ratioP2;P2;SDS_P1;SDS_P2;PMS_P1;PMS_P2;Temp;Humidity;BMP_temperature;BMP_pressure;BME280_temperature;BME280_humidity;BME280_pressure;Samples;Min_cycle;Max_cycle;Signal;HPM_P1;HPM_P2
2022/06/20 00:01:17;;;;;;;20.25;9.55;;;21.30;99.90;;;;;;5071140;28;20045;-65
2022/06/20 00:03:47;;;;;;;21.73;9.32;;;21.30;99.90;;;;;;5079956;28;20040;-65
2022/06/20 00:06:18;;;;;;;24.25;10.55;;;21.30;99.90;;;;;;5071908;28;20055;-65
2022/06/20 00:08:45;;;;;;;32.75;10.65;;;21.20;99.90;;;;;;5070180;28;20048;-65
2022/06/20 00:11:16;;;;;;;;;;;21.20;99.90;;;;;;5071439;28;20489;-65
2022/06/20 00:13:45;;;;;;;26.30;10.65;;;21.10;99.90;;;;;;5079707;28;19924;-65
2022/06/20 00:16:15;;;;;;;18.55;10.70;;;21.10;99.90;;;;;;5071619;28;20550;-65
2022/06/20 00:18:43;;;;;;;25.63;11.15;;;21.00;99.90;;;;;;5071495;28;20086;-65
2022/06/20 00:21:14;;;;;;;22.42;11.32;;;21.00;99.90;;;;;;5075585;28;20070;-65
2022/06/20 00:23:41;;;;;;;19.27;10.57;;;20.90;99.90;;;;;;5074157;28;20090;-65
2022/06/20 00:26:08;;;;;;;16.52;9.93;;;20.70;99.90;;;;;;5071418;28;20045;-65
2022/06/20 00:28:36;;;;;;;21.50;10.55;;;20.60;99.90;;;;;;5071301;28;20397;-65
2022/06/20 00:31:03;;;;;;;;;;;20.60;99.90;;;;;;5083291;28;20036;-65
2022/06/20 00:33:30;;;;;;;21.45;10.15;;;20.60;99.90;;;;;;5086603;28;20018;-66
2022/06/20 00:35:58;;;;;;;20.77;10.43;;;20.70;99.90;;;;;;5086246;28;20098;-66
2022/06/20 00:38:25;;;;;;;25.88;10.27;;;20.70;99.90;;;;;;5085799;28;20036;-65
2022/06/20 00:40:55;;;;;;;20.98;10.05;;;20.70;99.90;;;;;;5082517;28;20091;-65
2022/06/20 00:43:38;;;;;;;19.30;10.57;;;20.80;99.90;;;;;;5091641;28;20048;-65
2022/06/20 00:46:11;;;;;;;19.92;10.18;;;20.80;99.90;;;;;;5079432;28;20085;-65
2022/06/20 00:48:54;;;;;;;24.10;11.25;;;20.80;99.90;;;;;;5074104;28;20045;-65
2022/06/20 00:51:37;;;;;;;24.30;10.57;;;20.70;99.90;;;;;;5070368;28;20041;-65
2022/06/20 00:54:09;;;;;;;22.17;10.15;;;20.70;99.90;;;;;;5070773;28;20044;-65
2022/06/20 00:56:50;;;;;;;22.38;10.35;;;20.70;99.90;;;;;;5079437;28;20055;-65
2022/06/20 00:59:41;;;;;;;21.10;9.73;;;20.70;99.90;;;;;;5071015;28;20040;-65
2022/06/20 01:02:08;;;;;;;23.58;10.52;;;20.70;99.90;;;;;;5070401;28;20110;-65
2022/06/20 01:05:05;;;;;;;20.73;10.10;;;20.60;99.90;;;;;;5079270;28;20448;-65
2022/06/20 01:08:18;;;;;;;17.08;10.07;;;20.60;99.90;;;;;;5071074;28;20048;-65
2022/06/20 01:10:54;;;;;;;27.45;11.55;;;20.60;99.90;;;;;;5068647;28;20102;-65
2022/06/20 01:13:23;;;;;;;25.08;12.15;;;20.60;99.90;;;;;;5076226;28;20036;-65
2022/06/20 01:15:55;;;;;;;29.95;11.32;;;20.70;99.90;;;;;;5070849;28;20045;-62
2022/06/20 01:18:29;;;;;;;22.77;11.20;;;20.70;99.90;;;;;;5070924;28;20140;-65
2022/06/20 01:20:58;;;;;;;27.73;12.35;;;20.70;99.90;;;;;;5078628;28;20037;-65
2022/06/20 01:23:40;;;;;;;29.15;12.43;;;20.70;99.90;;;;;;5071378;28;20037;-65
2022/06/20 01:26:09;;;;;;;24.30;10.68;;;20.70;99.90;;;;;;5070754;28;20052;-65
2022/06/20 01:28:39;;;;;;;23.67;11.52;;;20.70;99.90;;;;;;5070580;28;20045;-65
2022/06/20 01:31:09;;;;;;;24.75;11.10;;;20.70;99.90;;;;;;5078736;28;20045;-65
2022/06/20 01:33:36;;;;;;;21.88;13.05;;;20.60;99.90;;;;;;5070830;28;20051;-65
2022/06/20 01:38:49;;;;;;;24.65;12.20;;;20.50;99.90;;;;;;5072325;28;20101;-65
2022/06/20 01:44:17;;;;;;;24.73;12.02;;;20.50;99.90;;;;;;5096999;28;20032;-75
2022/06/20 01:46:45;;;;;;;22.38;11.85;;;20.40;99.90;;;;;;5101225;28;20044;-75
2022/06/20 01:49:16;;;;;;;25.95;12.55;;;20.40;99.90;;;;;;5086521;28;20540;-74
2022/06/20 01:51:51;;;;;;;26.05;12.15;;;20.40;99.90;;;;;;5101808;28;20051;-75
2022/06/20 01:54:21;;;;;;;22.23;12.20;;;20.30;99.90;;;;;;5111546;28;20506;-75
2022/06/20 01:56:50;;;;;;;19.58;12.90;;;20.40;99.90;;;;;;5098934;28;20408;-75
2022/06/20 01:59:25;;;;;;;25.70;11.35;;;20.40;99.90;;;;;;5093098;28;20036;-75
2022/06/20 02:01:53;;;;;;;28.15;11.32;;;20.40;99.90;;;;;;5094338;28;20048;-75
2022/06/20 02:04:25;;;;;;;23.17;11.23;;;20.30;99.90;;;;;;5115088;28;20051;-75
2022/06/20 02:06:53;;;;;;;29.38;12.35;;;20.40;99.90;;;;;;5110842;28;20054;-75
2022/06/20 02:09:21;;;;;;;28.75;13.10;;;20.40;99.90;;;;;;5109107;28;20047;-75
2022/06/20 02:11:48;;;;;;;32.40;12.25;;;20.40;99.90;;;;;;5113934;28;20039;-75
2022/06/20 02:14:17;;;;;;;;;;;20.30;99.90;;;;;;5109314;28;20039;-75
2022/06/20 02:16:51;;;;;;;20.48;11.93;;;20.30;99.90;;;;;;5103982;28;19923;-75
2022/06/20 02:19:24;;;;;;;25.50;10.93;;;20.30;99.90;;;;;;5114766;28;20040;-75
2022/06/20 02:21:56;;;;;;;22.70;10.98;;;20.20;99.90;;;;;;5111726;28;20036;-75
2022/06/20 02:24:24;;;;;;;22.77;11.27;;;20.10;99.90;;;;;;5102489;28;20507;-75
2022/06/20 02:26:54;;;;;;;18.92;10.82;;;20.00;99.90;;;;;;5113191;28;20043;-75
2022/06/20 02:29:23;;;;;;;26.13;11.75;;;20.00;99.90;;;;;;5114767;28;20588;-75
2022/06/20 02:32:12;;;;;;;18.40;10.57;;;19.90;99.90;;;;;;5107502;28;20085;-75
2022/06/20 02:34:39;;;;;;;21.42;11.00;;;19.70;99.90;;;;;;5111345;28;20130;-75
2022/06/20 02:37:11;;;;;;;20.60;11.25;;;19.80;99.90;;;;;;5114374;28;20051;-75
2022/06/20 02:39:43;;;;;;;22.15;11.10;;;19.70;99.90;;;;;;5108439;28;20082;-75
2022/06/20 02:42:30;;;;;;;22.50;10.07;;;19.60;99.90;;;;;;5105241;28;20051;-75
2022/06/20 02:44:58;;;;;;;23.73;10.82;;;19.60;99.90;;;;;;5114179;28;20040;-75
2022/06/20 02:47:26;;;;;;;20.23;10.30;;;19.60;99.90;;;;;;5114126;28;20039;-75
2022/06/20 02:49:56;;;;;;;22.38;10.30;;;19.60;99.90;;;;;;5106103;28;20048;-75
2022/06/20 02:52:40;;;;;;;20.75;10.43;;;19.60;99.90;;;;;;5105800;28;20044;-75
2022/06/20 02:55:07;;;;;;;24.25;11.82;;;19.70;99.90;;;;;;5113933;28;20484;-75
2022/06/20 02:57:40;;;;;;;20.05;11.40;;;19.40;99.90;;;;;;5110254;28;20063;-75
2022/06/20 03:00:13;;;;;;;22.60;10.35;;;19.30;99.90;;;;;;5093924;28;20373;-75
2022/06/20 03:02:45;;;;;;;17.83;10.38;;;19.40;99.90;;;;;;5075533;28;20048;-75
2022/06/20 03:05:12;;;;;;;27.15;11.15;;;19.30;99.90;;;;;;5075621;28;20070;-75
2022/06/20 03:07:41;;;;;;;23.05;9.18;;;19.40;99.90;;;;;;5093506;28;20040;-75
2022/06/20 03:10:23;;;;;;;15.55;9.85;;;19.40;99.90;;;;;;5104604;28;20039;-75
2022/06/20 03:12:50;;;;;;;16.55;9.80;;;19.40;99.90;;;;;;5113019;28;20039;-75
2022/06/20 03:15:17;;;;;;;;;;;19.40;99.90;;;;;;5110186;28;20078;-75
2022/06/20 03:17:46;;;;;;;20.33;10.52;;;19.40;99.90;;;;;;5102632;28;19923;-75
2022/06/20 03:20:14;;;;;;;20.38;11.00;;;19.40;99.90;;;;;;5113208;28;20054;-75
2022/06/20 03:22:47;;;;;;;15.20;10.15;;;19.30;99.90;;;;;;5113340;28;20047;-76
2022/06/20 03:25:16;;;;;;;24.58;10.88;;;19.30;99.90;;;;;;5101312;28;20033;-76
2022/06/20 03:27:44;;;;;;;23.65;9.93;;;19.30;99.90;;;;;;5110922;28;20058;-75
2022/06/20 03:30:40;;;;;;;;;;;19.20;99.90;;;;;;5113390;28;20058;-75
2022/06/20 03:33:11;;;;;;;25.20;9.63;;;19.20;99.90;;;;;;5087642;28;19920;-75
2022/06/20 03:35:39;;;;;;;19.05;9.40;;;19.30;99.90;;;;;;5104768;28;20055;-75
2022/06/20 03:38:07;;;;;;;19.40;9.60;;;19.30;99.90;;;;;;5113024;28;20495;-75
2022/06/20 03:40:39;;;;;;;14.95;9.68;;;19.40;99.90;;;;;;5112637;28;20044;-75
2022/06/20 03:43:08;;;;;;;19.73;9.68;;;19.40;99.90;;;;;;5101366;28;20036;-75
2022/06/20 03:45:39;;;;;;;28.33;10.27;;;19.40;99.90;;;;;;5109389;28;20043;-75
2022/06/20 03:48:14;;;;;;;12.50;9.50;;;19.40;99.90;;;;;;5112975;28;20039;-75
2022/06/20 03:50:56;;;;;;;24.23;11.30;;;19.50;99.90;;;;;;5104507;28;20130;-75
2022/06/20 03:53:31;;;;;;;26.70;11.43;;;19.60;99.90;;;;;;5107674;28;20092;-76
2022/06/20 03:56:42;;;;;;;19.55;11.07;;;19.60;99.90;;;;;;5112792;28;20084;-75
2022/06/20 03:59:24;;;;;;;17.63;9.73;;;19.60;99.90;;;;;;5093588;28;20495;-75
2022/06/20 04:02:18;;;;;;;16.40;10.00;;;19.70;99.90;;;;;;5110943;28;20051;-76
2022/06/20 04:05:06;;;;;;;20.25;9.63;;;19.80;99.90;;;;;;5091833;28;20032;-76
2022/06/20 04:07:49;;;;;;;15.15;9.40;;;19.90;99.90;;;;;;5104026;28;20081;-75
2022/06/20 04:10:59;;;;;;;13.52;8.90;;;20.00;99.90;;;;;;5112084;28;20043;-75
2022/06/20 04:13:35;;;;;;;15.23;9.52;;;20.00;99.90;;;;;;5112540;28;20044;-76
2022/06/20 04:16:18;;;;;;;17.42;9.40;;;20.20;99.90;;;;;;5103943;28;20036;-76
2022/06/20 04:18:52;;;;;;;21.35;10.63;;;20.40;99.90;;;;;;5091961;28;20071;-75
2022/06/20 04:21:37;;;;;;;21.02;10.57;;;20.40;99.90;;;;;;5112146;28;20040;-76
2022/06/20 04:24:45;;;;;;;19.98;11.07;;;20.40;99.90;;;;;;5100012;28;20369;-76
2022/06/20 04:27:26;;;;;;;20.38;11.13;;;20.40;99.90;;;;;;5009266;28;20046;-76
2022/06/20 04:30:00;;;;;;;20.95;11.95;;;20.40;99.90;;;;;;5067793;28;20113;-76
2022/06/20 04:32:51;;;;;;;23.70;12.07;;;20.40;99.90;;;;;;5099003;28;20051;-76
2022/06/20 04:35:29;;;;;;;27.02;11.45;;;20.40;99.90;;;;;;5071445;28;20135;-76
2022/06/20 04:38:00;;;;;;;18.52;10.52;;;20.30;99.90;;;;;;5071640;28;20060;-76
2022/06/20 04:40:35;;;;;;;23.63;11.68;;;20.30;99.90;;;;;;5093086;28;20096;-75
2022/06/20 04:43:19;;;;;;;22.10;11.80;;;20.30;99.90;;;;;;5095860;28;20047;-76
2022/06/20 04:46:13;;;;;;;19.77;11.95;;;20.20;99.90;;;;;;5100233;28;20056;-75
2022/06/20 04:48:40;;;;;;;24.95;12.27;;;20.10;99.90;;;;;;5080305;28;20446;-76
2022/06/20 04:51:08;;;;;;;;;;;20.10;99.90;;;;;;5103072;28;20051;-76
2022/06/20 04:53:39;;;;;;;21.55;11.23;;;20.00;99.90;;;;;;5111847;28;19943;-76
2022/06/20 04:56:10;;;;;;;21.15;12.40;;;20.00;99.90;;;;;;5108910;28;20514;-74
2022/06/20 04:58:52;;;;;;;21.45;11.00;;;19.90;99.90;;;;;;5103230;28;20046;-76
2022/06/20 05:01:20;;;;;;;21.20;12.13;;;19.90;99.90;;;;;;5111151;28;20097;-75
2022/06/20 05:03:55;;;;;;;21.67;12.15;;;19.90;99.90;;;;;;5111656;28;20507;-76
2022/06/20 05:06:26;;;;;;;26.80;12.85;;;20.00;99.90;;;;;;5103591;28;20066;-76
2022/06/20 05:09:06;;;;;;;22.98;11.93;;;20.00;99.90;;;;;;5102933;28;20044;-76
2022/06/20 05:11:50;;;;;;;30.38;11.55;;;20.10;99.90;;;;;;5110626;28;20047;-76
2022/06/20 05:14:41;;;;;;;23.70;11.52;;;20.20;99.90;;;;;;5102357;28;20044;-76
2022/06/20 05:17:29;;;;;;;23.70;11.30;;;20.50;99.90;;;;;;5097156;28;20101;-76
2022/06/20 05:20:07;;;;;;;21.52;11.82;;;20.70;99.90;;;;;;5111153;28;20047;-76
2022/06/20 05:22:39;;;;;;;22.60;10.98;;;20.90;99.90;;;;;;5100171;28;20036;-76
2022/06/20 05:25:11;;;;;;;22.23;12.20;;;21.00;99.90;;;;;;5071220;28;20045;-76
2022/06/20 05:27:51;;;;;;;17.00;10.20;;;21.10;99.90;;;;;;5070997;28;20401;-76
2022/06/20 05:30:23;;;;;;;19.70;10.23;;;21.20;99.90;;;;;;5077027;28;20036;-75
2022/06/20 05:33:17;;;;;;;17.15;9.60;;;21.20;99.90;;;;;;5101745;28;20044;-75
2022/06/20 05:35:58;;;;;;;25.77;11.98;;;21.30;99.90;;;;;;5112162;28;20101;-76
2022/06/20 05:38:45;;;;;;;22.15;11.52;;;21.30;99.90;;;;;;5115546;28;20096;-77
2022/06/20 05:41:14;;;;;;;23.63;12.18;;;21.20;99.90;;;;;;5104759;28;20032;-76
2022/06/20 05:43:41;;;;;;;26.45;12.50;;;21.20;99.90;;;;;;5106761;28;20522;-76
2022/06/20 05:46:18;;;;;;;21.20;11.48;;;21.10;99.90;;;;;;5115404;28;20044;-76
2022/06/20 05:48:51;;;;;;;33.50;13.48;;;21.20;99.90;;;;;;5110639;28;20122;-76
2022/06/20 05:51:21;;;;;;;29.27;12.63;;;21.20;99.90;;;;;;5103879;28;20036;-76
2022/06/20 05:53:57;;;;;;;18.60;12.00;;;21.10;99.90;;;;;;5097087;28;20039;-76
2022/06/20 05:56:39;;;;;;;23.70;12.93;;;21.00;99.90;;;;;;5093691;28;20051;-76
2022/06/20 05:59:07;;;;;;;20.05;11.98;;;20.90;99.90;;;;;;5089941;28;20040;-76
2022/06/20 06:01:38;;;;;;;22.92;12.65;;;20.90;99.90;;;;;;5090897;28;20101;-76
2022/06/20 06:04:37;;;;;;;23.92;11.52;;;20.90;99.90;;;;;;5088162;28;20062;-76
2022/06/20 06:07:12;;;;;;;21.20;12.48;;;21.00;99.90;;;;;;5100857;28;20092;-76
2022/06/20 06:10:05;;;;;;;22.60;11.77;;;21.00;99.90;;;;;;5086861;28;20044;-76
2022/06/20 06:12:41;;;;;;;22.77;12.23;;;21.10;99.90;;;;;;5070553;28;20048;-76
2022/06/20 06:15:26;;;;;;;25.38;12.48;;;21.20;99.90;;;;;;5089446;28;20044;-76
2022/06/20 06:18:06;;;;;;;23.60;13.13;;;21.50;99.90;;;;;;5106527;28;20438;-76
2022/06/20 06:20:35;;;;;;;25.55;12.52;;;21.50;99.90;;;;;;5094393;28;20032;-76
2022/06/20 06:23:07;;;;;;;21.50;11.65;;;21.60;99.90;;;;;;5097395;28;20376;-76
2022/06/20 06:25:41;;;;;;;20.85;11.57;;;21.80;99.90;;;;;;5106215;28;20188;-76
2022/06/20 06:28:23;;;;;;;25.05;12.02;;;21.80;99.90;;;;;;5114175;28;20445;-76
2022/06/20 06:31:04;;;;;;;23.88;11.98;;;21.90;99.90;;;;;;5084206;28;20040;-76
2022/06/20 06:33:41;;;;;;;20.27;11.80;;;21.90;99.90;;;;;;5106010;28;20043;-76
2022/06/20 06:36:37;;;;;;;21.60;11.35;;;21.80;99.90;;;;;;5114479;28;20066;-76
2022/06/20 06:39:15;;;;;;;21.75;12.23;;;21.60;99.90;;;;;;5108067;28;20050;-76
2022/06/20 06:41:46;;;;;;;20.83;11.48;;;21.60;99.90;;;;;;5100061;28;20044;-75
2022/06/20 06:44:29;;;;;;;23.95;13.43;;;21.40;99.90;;;;;;5114300;28;20036;-76
2022/06/20 06:46:57;;;;;;;28.23;13.40;;;21.30;99.90;;;;;;5110735;28;20048;-75
2022/06/20 06:49:34;;;;;;;29.08;13.45;;;21.30;99.90;;;;;;5101127;28;20043;-76
2022/06/20 06:52:03;;;;;;;21.60;13.33;;;21.30;99.90;;;;;;5073049;28;20136;-76
2022/06/20 06:54:42;;;;;;;22.73;11.82;;;21.50;99.90;;;;;;5073450;28;20056;-76
2022/06/20 06:57:26;;;;;;;19.50;11.65;;;21.70;99.90;;;;;;5098850;28;20492;-76
2022/06/20 07:00:02;;;;;;;22.52;11.88;;;21.90;99.90;;;;;;5103616;28;20064;-77
2022/06/20 07:02:36;;;;;;;19.67;12.13;;;22.00;99.90;;;;;;5093438;28;20488;-76
2022/06/20 07:05:14;;;;;;;18.75;12.05;;;22.10;99.90;;;;;;5096934;28;20057;-76
2022/06/20 07:07:43;;;;;;;21.80;12.70;;;22.10;99.90;;;;;;5087225;28;20059;-76
2022/06/20 07:10:20;;;;;;;22.83;12.45;;;22.00;99.90;;;;;;5107259;28;20047;-76
2022/06/20 07:12:51;;;;;;;25.02;12.95;;;22.00;99.90;;;;;;5086320;28;20032;-78
2022/06/20 07:15:23;;;;;;;28.00;12.65;;;22.00;99.90;;;;;;5090562;28;20047;-77
2022/06/20 07:17:56;;;;;;;25.55;12.60;;;21.90;99.90;;;;;;5084317;28;20048;-76
2022/06/20 07:20:30;;;;;;;20.65;12.10;;;21.80;99.90;;;;;;5081012;28;20040;-76
2022/06/20 07:23:00;;;;;;;26.33;13.07;;;22.00;99.90;;;;;;5085907;28;20039;-77
2022/06/20 07:25:35;;;;;;;20.85;12.02;;;22.20;99.90;;;;;;5071043;28;20044;-76
2022/06/20 07:28:11;;;;;;;22.10;11.50;;;22.10;99.90;;;;;;5083228;28;20047;-76
2022/06/20 07:30:43;;;;;;;17.48;10.70;;;22.10;99.90;;;;;;5081265;28;20044;-76
2022/06/20 07:33:17;;;;;;;17.52;10.48;;;22.20;99.90;;;;;;5087128;28;20040;-76
2022/06/20 07:35:49;;;;;;;19.63;10.77;;;22.40;99.90;;;;;;5086207;28;20869;-74
2022/06/20 07:38:35;;;;;;;20.70;11.93;;;22.50;99.90;;;;;;5081908;28;20529;-73
2022/06/20 07:41:08;;;;;;;17.65;11.77;;;22.90;99.90;;;;;;5095372;22;20042;-66
2022/06/20 07:43:40;;;;;;;25.50;11.15;;;23.20;99.90;;;;;;5070678;28;20040;-66
2022/06/20 07:46:12;;;;;;;24.52;11.38;;;23.60;99.90;;;;;;5072264;28;20044;-66
2022/06/20 07:48:42;;;;;;;20.38;11.27;;;24.00;99.90;;;;;;5068133;28;20044;-66
2022/06/20 07:51:23;;;;;;;18.60;10.88;;;24.50;99.90;;;;;;5067298;28;20124;-66
2022/06/20 07:53:58;;;;;;;17.00;11.05;;;24.90;99.90;;;;;;5067331;28;20048;-66
2022/06/20 07:56:29;;;;;;;21.40;11.27;;;25.20;99.90;;;;;;5052199;28;20048;-66
2022/06/20 07:59:06;;;;;;;16.65;11.07;;;25.20;99.90;;;;;;5051984;28;20045;-65
2022/06/20 08:01:51;;;;;;;16.20;11.10;;;25.30;99.90;;;;;;5047233;28;20041;-65
2022/06/20 08:04:28;;;;;;;15.35;10.30;;;25.50;99.90;;;;;;5045782;28;20043;-65
2022/06/20 08:07:03;;;;;;;20.25;11.65;;;25.50;99.90;;;;;;5042593;28;20033;-65
2022/06/20 08:09:44;;;;;;;19.75;10.70;;;25.50;99.90;;;;;;5031914;28;20041;-65
2022/06/20 08:13:00;;;;;;;15.07;10.55;;;25.60;99.90;;;;;;5056058;28;20114;-65
2022/06/20 08:15:33;;;;;;;15.85;10.25;;;25.70;99.90;;;;;;5031966;28;20134;-65
2022/06/20 08:18:00;;;;;;;21.65;13.60;;;25.80;99.90;;;;;;5014607;28;20473;-65
2022/06/20 08:20:32;;;;;;;21.00;10.63;;;25.80;99.90;;;;;;5038395;28;20371;-65
2022/06/20 08:23:04;;;;;;;18.17;10.68;;;25.80;99.90;;;;;;5059896;28;20048;-65
2022/06/20 08:25:44;;;;;;;18.35;11.10;;;25.80;99.90;;;;;;5051781;28;20088;-65
2022/06/20 08:28:14;;;;;;;15.90;10.63;;;26.00;99.90;;;;;;5051440;28;20043;-65
2022/06/20 08:30:57;;;;;;;17.23;10.20;;;25.90;99.90;;;;;;5062679;28;20051;-65
2022/06/20 08:33:27;;;;;;;21.70;9.90;;;25.90;99.90;;;;;;5060178;28;20051;-65
2022/06/20 08:36:02;;;;;;;16.13;9.70;;;26.00;99.90;;;;;;5042154;28;20048;-65
2022/06/20 08:39:07;;;;;;;18.00;9.77;;;26.40;99.90;;;;;;5041680;28;20040;-65
2022/06/20 08:41:48;;;;;;;17.15;9.88;;;26.70;99.90;;;;;;4969148;28;20415;-65
2022/06/20 08:44:41;;;;;;;19.40;8.50;;;27.00;99.90;;;;;;4966746;28;20496;-65
2022/06/20 08:47:26;;;;;;;17.10;8.45;;;27.20;99.90;;;;;;5028965;28;20052;-65
2022/06/20 08:50:12;;;;;;;20.42;8.82;;;27.50;99.90;;;;;;5062577;28;20048;-65
2022/06/20 08:53:18;;;;;;;16.10;8.25;;;27.70;99.90;;;;;;5052675;28;20040;-65
2022/06/20 08:55:58;;;;;;;21.42;8.88;;;28.10;99.90;;;;;;5050672;28;20401;-65
2022/06/20 08:58:37;;;;;;;17.42;8.10;;;28.10;99.90;;;;;;5059555;28;20037;-65
2022/06/20 09:01:29;;;;;;;19.38;7.80;;;27.80;99.90;;;;;;5031024;28;20512;-65
2022/06/20 09:04:20;;;;;;;14.25;8.32;;;27.60;99.90;;;;;;5047102;28;20040;-65
2022/06/20 09:07:04;;;;;;;12.55;7.32;;;27.40;99.90;;;;;;5057808;28;20037;-65
2022/06/20 09:09:52;;;;;;;16.35;8.07;;;27.40;99.90;;;;;;5039221;28;20032;-64
2022/06/20 09:12:38;;;;;;;21.55;8.10;;;27.50;99.90;;;;;;5045007;28;20076;-64
2022/06/20 09:15:17;;;;;;;17.60;8.55;;;27.70;99.90;;;;;;5063055;28;20091;-64
2022/06/20 09:17:56;;;;;;;15.85;8.70;;;27.90;99.90;;;;;;5054961;28;20059;-64
2022/06/20 09:20:29;;;;;;;14.68;8.10;;;28.20;99.90;;;;;;5049670;28;20041;-65
2022/06/20 09:23:18;;;;;;;18.30;7.93;;;28.40;99.90;;;;;;5062601;28;20045;-65
2022/06/20 09:25:51;;;;;;;19.20;8.38;;;28.20;99.90;;;;;;5055141;28;20037;-64
2022/06/20 09:28:36;;;;;;;19.95;8.43;;;28.00;99.90;;;;;;5051030;28;20044;-64
2022/06/20 09:31:07;;;;;;;16.15;8.23;;;27.90;99.90;;;;;;5051196;28;20036;-65
2022/06/20 09:34:17;;;;;;;22.15;8.48;;;27.90;99.90;;;;;;5058598;28;20045;-64
2022/06/20 09:36:46;;;;;;;16.92;8.35;;;27.80;99.90;;;;;;5045276;28;20049;-63
2022/06/20 09:39:25;;;;;;;19.77;8.70;;;27.70;99.90;;;;;;5040157;28;20045;-63
2022/06/20 09:42:00;;;;;;;15.63;8.68;;;27.70;99.90;;;;;;5062235;28;20722;-64
2022/06/20 09:44:48;;;;;;;18.95;8.07;;;27.60;99.90;;;;;;5054856;28;20045;-64
2022/06/20 09:47:37;;;;;;;15.73;7.63;;;27.30;99.90;;;;;;5054895;28;20041;-64
2022/06/20 09:50:14;;;;;;;15.75;8.75;;;27.10;99.90;;;;;;5054322;28;20045;-64
2022/06/20 09:53:11;;;;;;;23.50;8.68;;;27.10;99.90;;;;;;5042947;28;20049;-64
2022/06/20 09:55:50;;;;;;;17.33;9.10;;;26.90;99.90;;;;;;5045139;28;20115;-65
2022/06/20 09:58:36;;;;;;;25.30;9.55;;;27.00;99.90;;;;;;5049771;28;20122;-64
2022/06/20 10:01:27;;;;;;;14.80;8.30;;;27.00;99.90;;;;;;5040597;28;20099;-64
2022/06/20 10:04:10;;;;;;;13.23;8.70;;;27.00;99.90;;;;;;5042663;28;20045;-64
2022/06/20 10:06:49;;;;;;;19.67;8.82;;;27.20;99.90;;;;;;5050818;28;20505;-64
2022/06/20 10:09:41;;;;;;;18.55;9.48;;;27.30;99.90;;;;;;5074517;28;20040;-64
2022/06/20 10:12:23;;;;;;;15.07;8.98;;;27.20;99.90;;;;;;5073997;28;20049;-64
2022/06/20 10:15:09;;;;;;;17.98;8.63;;;27.30;99.90;;;;;;5061016;28;20045;-64
2022/06/20 10:18:00;;;;;;;16.20;8.52;;;27.40;99.90;;;;;;5033941;28;20049;-64
2022/06/20 10:20:52;;;;;;;15.65;8.90;;;27.50;99.90;;;;;;5014856;28;20053;-64
2022/06/20 10:23:52;;;;;;;19.10;9.10;;;27.80;99.90;;;;;;5058847;28;20075;-64
2022/06/20 10:26:44;;;;;;;16.63;7.18;;;28.00;99.90;;;;;;5034005;28;20449;-64
2022/06/20 10:29:24;;;;;;;19.52;8.50;;;28.30;99.90;;;;;;5033681;28;20053;-64
2022/06/20 10:32:09;;;;;;;20.63;8.77;;;28.10;99.90;;;;;;5037762;28;20064;-64
2022/06/20 10:34:51;;;;;;;15.07;8.30;;;28.20;99.90;;;;;;5065390;28;20036;-64
2022/06/20 10:37:24;;;;;;;18.90;7.97;;;28.20;99.90;;;;;;5073853;28;20074;-64
2022/06/20 10:40:26;;;;;;;18.75;8.60;;;28.20;99.90;;;;;;5073348;28;20076;-64
2022/06/20 10:43:14;;;;;;;17.52;7.57;;;28.20;99.90;;;;;;5053143;28;20037;-64
2022/06/20 10:45:44;;;;;;;21.55;7.57;;;28.10;99.90;;;;;;5044050;28;20559;-65
2022/06/20 10:48:13;;;;;;;15.75;8.38;;;28.00;99.90;;;;;;5058341;28;20045;-64
2022/06/20 10:50:58;;;;;;;12.15;7.55;;;28.20;99.90;;;;;;5051884;28;20126;-64
2022/06/20 10:53:46;;;;;;;14.52;7.35;;;28.70;99.90;;;;;;5053144;28;20402;-64
2022/06/20 10:56:37;;;;;;;10.57;7.75;;;29.50;98.30;;;;;;5060875;28;20041;-64
2022/06/20 10:59:17;;;;;;;16.23;7.78;;;29.70;99.90;;;;;;5053393;28;20118;-64
2022/06/20 11:01:53;;;;;;;14.90;7.45;;;29.60;99.50;;;;;;5052767;28;20037;-64
2022/06/20 11:04:49;;;;;;;16.57;7.47;;;29.60;99.20;;;;;;5049715;28;20111;-64
2022/06/20 11:07:44;;;;;;;11.80;7.15;;;29.50;98.60;;;;;;5052632;28;20397;-64
2022/06/20 11:10:24;;;;;;;13.10;6.80;;;29.70;98.20;;;;;;5072764;28;20079;-64
2022/06/20 11:13:09;;;;;;;15.95;7.30;;;29.60;98.20;;;;;;5073241;28;20467;-64
2022/06/20 11:16:11;;;;;;;14.65;6.30;;;29.50;97.20;;;;;;5060867;28;20045;-64
2022/06/20 11:18:48;;;;;;;18.17;7.47;;;29.10;97.90;;;;;;5035775;28;20058;-64
2022/06/20 11:21:36;;;;;;;20.13;7.43;;;28.80;98.60;;;;;;5072473;28;20516;-64
2022/06/20 11:24:33;;;;;;;12.45;6.38;;;28.70;99.10;;;;;;5055874;28;20044;-64
2022/06/20 11:27:25;;;;;;;11.85;6.35;;;28.90;97.50;;;;;;5061228;28;20090;-64
2022/06/20 11:30:05;;;;;;;18.45;7.03;;;29.20;97.70;;;;;;5052594;28;20448;-64
2022/06/20 11:32:54;;;;;;;13.93;6.53;;;29.50;97.00;;;;;;5050311;28;20045;-64
2022/06/20 11:35:44;;;;;;;12.05;6.40;;;29.80;97.10;;;;;;5061515;28;20110;-64
2022/06/20 11:38:43;;;;;;;14.27;6.78;;;29.90;96.00;;;;;;5072760;28;20055;-64
2022/06/20 11:41:15;;;;;;;11.93;6.65;;;30.20;94.70;;;;;;5065113;28;20071;-64
2022/06/20 11:44:15;;;;;;;17.90;6.15;;;30.70;94.90;;;;;;5057965;28;20045;-64
2022/06/20 11:47:05;;;;;;;14.52;6.65;;;30.80;94.90;;;;;;5052330;28;20498;-64
2022/06/20 11:50:02;;;;;;;14.48;6.93;;;30.70;93.80;;;;;;5052496;28;20417;-65
2022/06/20 11:52:51;;;;;;;14.45;6.53;;;30.30;94.40;;;;;;5055986;28;20090;-66
2022/06/20 11:55:35;;;;;;;15.15;7.07;;;29.70;93.90;;;;;;5032286;28;20045;-65
2022/06/20 11:58:15;;;;;;;14.50;6.75;;;29.20;95.50;;;;;;5032372;28;20111;-65
2022/06/20 12:01:08;;;;;;;13.85;7.00;;;28.90;95.40;;;;;;5041970;28;20037;-65
2022/06/20 12:03:41;;;;;;;19.50;7.05;;;28.90;95.80;;;;;;5055398;28;20491;-65
2022/06/20 12:06:24;;;;;;;16.08;7.38;;;28.80;95.30;;;;;;5052099;28;20440;-65
2022/06/20 12:09:01;;;;;;;14.10;7.03;;;28.70;94.80;;;;;;5046913;28;20033;-65
2022/06/20 12:11:54;;;;;;;17.02;7.50;;;28.90;96.40;;;;;;5059561;28;20099;-65
2022/06/20 12:14:29;;;;;;;15.60;7.93;;;29.20;96.30;;;;;;5051668;28;20056;-65
2022/06/20 12:17:14;;;;;;;17.17;7.55;;;29.30;97.40;;;;;;5051744;28;20083;-65
2022/06/20 12:25:41;;;;;;;10.18;6.53;;;29.60;96.30;;;;;;5071543;28;20055;-65
2022/06/20 12:28:18;;;;;;;15.70;8.05;;;29.60;96.60;;;;;;5057449;28;20052;-65
2022/06/20 12:31:08;;;;;;;12.70;6.95;;;29.70;94.70;;;;;;5053191;28;20040;-65
2022/06/20 12:33:40;;;;;;;15.00;7.28;;;29.80;95.50;;;;;;5051635;28;20378;-65
2022/06/20 12:36:18;;;;;;;19.70;6.85;;;30.20;93.70;;;;;;5052979;28;20044;-65
2022/06/20 12:38:50;;;;;;;14.85;7.03;;;30.30;93.10;;;;;;5062840;28;20048;-65
2022/06/20 12:41:20;;;;;;;17.05;7.07;;;30.30;92.20;;;;;;5070958;28;20044;-65
2022/06/20 12:44:11;;;;;;;13.02;6.47;;;30.20;92.50;;;;;;5071467;28;20556;-65
2022/06/20 12:46:59;;;;;;;19.17;6.78;;;30.30;91.70;;;;;;5055952;28;20493;-65
2022/06/20 12:50:01;;;;;;;12.43;6.30;;;30.50;91.90;;;;;;5071393;28;20052;-65
2022/06/20 12:52:39;;;;;;;15.63;6.80;;;30.60;91.10;;;;;;5053980;28;20049;-65
2022/06/20 12:55:44;;;;;;;16.25;6.88;;;30.40;92.50;;;;;;5059583;28;20532;-65
2022/06/20 12:58:37;;;;;;;12.40;6.57;;;30.20;91.70;;;;;;5043934;28;20057;-65
2022/06/20 13:01:28;;;;;;;10.07;5.95;;;29.80;92.50;;;;;;5050799;28;20041;-65
2022/06/20 13:04:22;;;;;;;15.48;5.95;;;29.60;92.20;;;;;;5061087;28;20075;-65
2022/06/20 13:07:04;;;;;;;12.57;6.57;;;29.30;88.30;;;;;;5071201;28;20036;-65
2022/06/20 13:09:55;;;;;;;16.60;6.75;;;29.60;93.30;;;;;;5063779;28;20040;-64
2022/06/20 13:12:43;;;;;;;14.00;5.90;;;30.00;91.90;;;;;;5053860;28;20046;-65
2022/06/20 13:15:28;;;;;;;;;;;30.20;92.00;;;;;;5051768;28;20063;-65
2022/06/20 13:18:17;;;;;;;17.70;7.22;;;30.50;92.20;;;;;;5048410;28;19932;-65
2022/06/20 13:21:08;;;;;;;16.20;6.10;;;31.00;92.00;;;;;;5059370;28;20041;-65
2022/06/20 13:24:00;;;;;;;12.15;6.53;;;31.10;90.00;;;;;;5051239;28;20041;-65
2022/06/20 13:26:30;;;;;;;14.77;6.78;;;30.90;90.30;;;;;;5050077;28;20061;-65
2022/06/20 13:29:22;;;;;;;12.77;5.70;;;30.50;85.40;;;;;;5061455;28;20036;-65
2022/06/20 13:32:01;;;;;;;16.50;6.93;;;30.70;91.80;;;;;;5070540;28;20052;-65
2022/06/20 13:34:54;;;;;;;12.23;6.18;;;31.00;90.10;;;;;;5071056;28;20044;-65
2022/06/20 13:37:43;;;;;;;9.65;6.25;;;30.90;90.80;;;;;;5053449;28;20128;-66
2022/06/20 13:40:35;;;;;;;10.23;6.32;;;30.30;88.50;;;;;;5056604;28;20044;-65
2022/06/20 13:43:24;;;;;;;13.48;5.88;;;29.40;91.00;;;;;;5100462;22;20036;-64
2022/06/20 13:46:09;;;;;;;16.80;6.03;;;29.20;92.10;;;;;;5082027;28;20044;-64